Potlatch, Idaho
Current Conditions -  °F | °C
As of 1:53 PM on Friday 24 Oct 2014 (Local Time) from KPUW Reporting Station
Clear Clear  
Wind Chill: 54°   Ceiling: Unl
Heat Index: 54°   Visibility: 10mi
Dew Point: 45°   Wind: 14mph
Humidity: 72%   Direction: 100°E
Pressure: 30.06"   Gusts: NA
Location:  46.92°N, 116.9°W
Report Text: KPUW 242053Z AUTO 10012KT 10SM CLR 12/07 A3006 RMK AO2 SLP183 T01220072 58015
Loading
Personal Weather Stations






























Interactive Weather Map
Tropical Storm Tracking
New forecast layout! Learn more

10-Day Weather Forecast

Advertisements
Track Severe Weather on mobile